Bay City, TX (77414)

11:54 AM CST on March 01, 2015 (GMT -0600)
Bay City | Change Station
CLOSE
Current Station
Airport
Location: Bay City,
Elevation: 46 ft
Nearby Weather Stations
Active Advisory: Dense Fog Advisory

Elev 46 ft 28.97 °N, 95.86 °W | Updated 19 minutes ago

Mostly Cloudy
Mostly Cloudy
60 °F
Feels Like 60 °F
N
5
Wind Variable Wind from North

Today
High -- | Low -- °F
--% Chance of Precip.
Yesterday
High -- | Low -- °F
Precip. -- in
6:49 AM 6:23 PM
Waxing Gibbous, 86% visible
Pressure 30.21 in
Visibility 1.0 miles
Clouds Overcast 200 ft
Dew Point 60 °F
Humidity 100%
Rainfall 0.31 in
Snow Depth Not available.
UV 2 out of 12
Pollen 5.70 out of 12
Air Quality Not available.
Flu Activity Not available.
METAR KBYY 011735Z AUTO 35004KT 1SM BR OVC002 15/15 A3021 RMK AO2 T01570157

More Conditions Fewer Conditions

Pressure 30.21 in
Visibility 1.0 miles
Clouds Overcast 200 ft
Dew Point 60 °F
Humidity 100%
Rainfall 0.31 in
Snow Depth Not available.
UV 2 out of 12
Pollen 5.70 out of 12
Air Quality Not available.
Flu Activity Not available.
METAR KBYY 011735Z AUTO 35004KT 1SM BR OVC002 15/15 A3021 RMK AO2 T01570157

More Conditions Fewer Conditions

10-Day Weather Forecast

Almanac

Astronomy

Mar. 01, 2015 Rise Set
Actual Time
Civil Twilight
Nautical Twilight
Astronomical Twilight
Moon
Length of Visible Light
Length of Day
Tomorrow will be .
, % of the Moon is Illuminated

Today's Extremes

State Highs State Lows

Community

WunderPhotos

Upload Photos

1,801,483 photos uploaded!

WunderBlogs® & News

Nearby

Air Quality

  Air Quality AQ Index Pollutant
Not available.

Snow Depth

Station Depth Elevation

Earthquake Activity

City Distance Mag. Time & Date
Minimum magnitude displayed is 2.5.

Coastal Water Temperatures

Place Temperature

Nearby Weather Stations

Dense Fog Advisory
Statement as of 10:46 AM CST on March 01, 2015

... Dense fog advisory in effect until 10 PM CST this evening...

The National Weather Service in Houston/Galveston has issued a
dense fog advisory... which is in effect until 10 PM CST this
evening.

* Event... dense fog reducing visibility.

* Timing... through this afternoon and tonight.

* Impact... visibility reduced to a quarter mile or less at times
impacting travel conditions.

Precautionary/preparedness actions...

A dense fog advisory means visibilities will frequently be
reduced to less than one quarter mile. If driving... slow down...
use your headlights... and leave plenty of distance ahead of you.